This is the latest recevied weather packets stored in our database for station/object DH6PF-10. If no packets are shown the sender has not sent any weather packets the latest 10 day(s).
| Time | Temp. | Humidity | Pressure | Rain* | Wind** | Luminosity | Snow |
|---|---|---|---|---|---|---|---|
| 1787874111 | 20° C | 95% | 1011 hPa | - | - | - | - |
| 1787873511 | 20.56° C | 95% | 1011.8 hPa | - | - | - | - |
| 1787872911 | 20.56° C | 93% | 1011.7 hPa | - | - | - | - |
| 1787872311 | 20.56° C | 91% | 1012.3 hPa | - | - | - | - |
| 1787871711 | 21.11° C | 88% | 1012.5 hPa | - | - | - | - |
| 1787871111 | 22.78° C | 80% | 1012.8 hPa | - | - | - | - |
| 1787870511 | 25° C | 67% | 1012 hPa | - | - | - | - |
| 1787869911 | 25.56° C | 62% | 1011.5 hPa | - | - | - | - |
| 1787869311 | 25.56° C | 60% | 1010.5 hPa | - | - | - | - |
| 1787868711 | 25.56° C | 59% | 1010.5 hPa | - | - | - | - |
| 1787868111 | 25.56° C | 60% | 1010.7 hPa | - | - | - | - |
| 1787867511 | 25.56° C | 61% | 1010.7 hPa | - | - | - | - |
| 1787866911 | 25° C | 61% | 1010.2 hPa | - | - | - | - |
| 1787866311 | 25° C | 64% | 1010.8 hPa | - | - | - | - |
| 1787865711 | 25.56° C | 63% | 1010.4 hPa | - | - | - | - |
| 1787865111 | 25.56° C | 63% | 1010.5 hPa | - | - | - | - |
| 1787864511 | 26.11° C | 60% | 1010.8 hPa | - | - | - | - |
| 1787863911 | 26.11° C | 58% | 1010.7 hPa | - | - | - | - |
| 1787863311 | 26.67° C | 57% | 1010.4 hPa | - | - | - | - |
| 1787862710 | 26.67° C | 56% | 1010.5 hPa | - | - | - | - |
| 1787862111 | 26.11° C | 60% | 1011 hPa | - | - | - | - |
| 1787861511 | 26.11° C | 59% | 1010.5 hPa | - | - | - | - |
| 1787860911 | 26.67° C | 59% | 1010.8 hPa | - | - | - | - |
| 1787860311 | 26.11° C | 59% | 1010.9 hPa | - | - | - | - |
| 1787859711 | 26.11° C | 61% | 1011 hPa | - | - | - | - |
* Rain since midnight (hover to see other rain measurements)
** Current wind speed in m/s (hover to see current wind gust speed)